sensor_id;sensor_type;location;lat;lon;timestamp;pressure;altitude;pressure_sealevel;temperature;humidity
56402;BME280;42299;35.160;26.100;2022-08-25T00:01:43;100610.75;;;22.23;84.04
56402;BME280;42299;35.160;26.100;2022-08-25T00:03:06;100609.00;;;22.22;84.03
56402;BME280;42299;35.160;26.100;2022-08-25T00:04:28;100609.00;;;22.22;84.13
56402;BME280;42299;35.160;26.100;2022-08-25T00:05:51;100609.00;;;22.22;84.25
56402;BME280;42299;35.160;26.100;2022-08-25T00:07:12;100612.63;;;22.21;84.31
56402;BME280;42299;35.160;26.100;2022-08-25T00:08:36;100608.22;;;22.19;84.32
56402;BME280;42299;35.160;26.100;2022-08-25T00:09:58;100610.06;;;22.18;84.20
56402;BME280;42299;35.160;26.100;2022-08-25T00:11:22;100599.34;;;22.17;84.25
56402;BME280;42299;35.160;26.100;2022-08-25T00:12:44;100605.69;;;22.14;84.01
56402;BME280;42299;35.160;26.100;2022-08-25T00:14:11;100601.19;;;22.15;83.77
56402;BME280;42299;35.160;26.100;2022-08-25T00:15:36;100605.69;;;22.14;83.71
56402;BME280;42299;35.160;26.100;2022-08-25T00:16:58;100603.03;;;22.13;83.53
56402;BME280;42299;35.160;26.100;2022-08-25T00:18:20;100603.94;;;22.13;83.54
56402;BME280;42299;35.160;26.100;2022-08-25T00:19:42;100593.25;;;22.12;83.54
56402;BME280;42299;35.160;26.100;2022-08-25T00:21:05;100595.06;;;22.11;83.44
56402;BME280;42299;35.160;26.100;2022-08-25T00:22:26;100597.00;;;22.06;83.50
56402;BME280;42299;35.160;26.100;2022-08-25T00:23:48;100595.41;;;22.01;83.66
56402;BME280;42299;35.160;26.100;2022-08-25T00:25:10;100593.72;;;21.98;83.88
56402;BME280;42299;35.160;26.100;2022-08-25T00:26:33;100592.84;;;21.98;83.74
56402;BME280;42299;35.160;26.100;2022-08-25T00:27:56;100586.53;;;21.99;83.77
56402;BME280;42299;35.160;26.100;2022-08-25T00:29:19;100585.66;;;21.98;83.79
56402;BME280;42299;35.160;26.100;2022-08-25T00:30:44;100581.19;;;21.97;83.77
56402;BME280;42299;35.160;26.100;2022-08-25T00:32:05;100588.38;;;21.97;83.87
56402;BME280;42299;35.160;26.100;2022-08-25T00:33:29;100587.63;;;21.92;83.88
56402;BME280;42299;35.160;26.100;2022-08-25T00:34:51;100586.84;;;21.88;84.10
56402;BME280;42299;35.160;26.100;2022-08-25T00:36:15;100579.78;;;21.85;84.27
56402;BME280;42299;35.160;26.100;2022-08-25T00:37:36;100578.06;;;21.83;84.36
56402;BME280;42299;35.160;26.100;2022-08-25T00:38:59;100581.69;;;21.82;84.39
56402;BME280;42299;35.160;26.100;2022-08-25T00:40:22;100578.09;;;21.81;84.47
56402;BME280;42299;35.160;26.100;2022-08-25T00:41:44;100573.66;;;21.80;84.58
56402;BME280;42299;35.160;26.100;2022-08-25T00:43:08;100579.03;;;21.80;84.55
56402;BME280;42299;35.160;26.100;2022-08-25T00:44:31;100577.28;;;21.79;84.60
56402;BME280;42299;35.160;26.100;2022-08-25T00:45:55;100573.78;;;21.77;84.68
56402;BME280;42299;35.160;26.100;2022-08-25T00:47:17;100575.59;;;21.77;84.60
56402;BME280;42299;35.160;26.100;2022-08-25T00:48:41;100572.91;;;21.77;84.56
56402;BME280;42299;35.160;26.100;2022-08-25T00:50:06;100568.44;;;21.76;84.53
56402;BME280;42299;35.160;26.100;2022-08-25T00:51:34;100567.56;;;21.75;84.43
56402;BME280;42299;35.160;26.100;2022-08-25T00:53:00;100566.72;;;21.73;84.50
56402;BME280;42299;35.160;26.100;2022-08-25T00:54:26;100570.28;;;21.74;84.47
56402;BME280;42299;35.160;26.100;2022-08-25T00:55:50;100563.28;;;21.70;84.35
56402;BME280;42299;35.160;26.100;2022-08-25T00:57:15;100571.53;;;21.64;84.32
56402;BME280;42299;35.160;26.100;2022-08-25T00:58:41;100566.38;;;21.58;84.63
56402;BME280;42299;35.160;26.100;2022-08-25T01:00:05;100567.28;;;21.57;84.87
56402;BME280;42299;35.160;26.100;2022-08-25T01:01:33;100565.50;;;21.57;84.79
56402;BME280;42299;35.160;26.100;2022-08-25T01:02:56;100562.84;;;21.56;84.87
56402;BME280;42299;35.160;26.100;2022-08-25T01:04:20;100561.25;;;21.50;84.96
56402;BME280;42299;35.160;26.100;2022-08-25T01:05:42;100557.19;;;21.37;85.12
56402;BME280;42299;35.160;26.100;2022-08-25T01:07:05;100556.59;;;21.27;85.41
56402;BME280;42299;35.160;26.100;2022-08-25T01:08:28;100559.28;;;21.27;85.60
56402;BME280;42299;35.160;26.100;2022-08-25T01:09:52;100566.22;;;21.34;85.61
56402;BME280;42299;35.160;26.100;2022-08-25T01:11:15;100568.81;;;21.37;85.32
56402;BME280;42299;35.160;26.100;2022-08-25T01:12:38;100557.00;;;21.43;85.18
56402;BME280;42299;35.160;26.100;2022-08-25T01:14:01;100568.41;;;21.50;84.93
56402;BME280;42299;35.160;26.100;2022-08-25T01:15:27;100570.16;;;21.52;84.63
56402;BME280;42299;35.160;26.100;2022-08-25T01:16:50;100570.91;;;21.56;84.56
56402;BME280;42299;35.160;26.100;2022-08-25T01:18:13;100569.09;;;21.56;84.56
56402;BME280;42299;35.160;26.100;2022-08-25T01:19:35;100566.38;;;21.58;84.54
56402;BME280;42299;35.160;26.100;2022-08-25T01:20:59;100565.44;;;21.59;84.41
56402;BME280;42299;35.160;26.100;2022-08-25T01:22:21;100561.00;;;21.58;84.21
56402;BME280;42299;35.160;26.100;2022-08-25T01:23:47;100569.19;;;21.53;84.03
56402;BME280;42299;35.160;26.100;2022-08-25T01:25:21;100573.78;;;21.50;83.93
56402;BME280;42299;35.160;26.100;2022-08-25T01:26:46;100577.59;;;21.42;84.16
56402;BME280;42299;35.160;26.100;2022-08-25T01:28:08;100574.91;;;21.42;84.55
56402;BME280;42299;35.160;26.100;2022-08-25T01:29:30;100572.16;;;21.45;84.53
56402;BME280;42299;35.160;26.100;2022-08-25T01:30:53;100573.03;;;21.46;84.80
56402;BME280;42299;35.160;26.100;2022-08-25T01:32:16;100573.78;;;21.50;84.97
56402;BME280;42299;35.160;26.100;2022-08-25T01:33:38;100580.06;;;21.50;85.09
56402;BME280;42299;35.160;26.100;2022-08-25T01:34:59;100570.28;;;21.47;85.36
56402;BME280;42299;35.160;26.100;2022-08-25T01:36:26;100577.56;;;21.44;85.46
56402;BME280;42299;35.160;26.100;2022-08-25T01:37:47;100574.06;;;21.40;85.95
56402;BME280;42299;35.160;26.100;2022-08-25T01:39:11;100576.56;;;21.46;86.23
56402;BME280;42299;35.160;26.100;2022-08-25T01:40:33;100578.13;;;21.54;86.25
56402;BME280;42299;35.160;26.100;2022-08-25T01:42:16;100578.75;;;21.62;86.16
56402;BME280;42299;35.160;26.100;2022-08-25T01:43:40;100583.06;;;21.67;85.86
56402;BME280;42299;35.160;26.100;2022-08-25T01:45:03;100572.19;;;21.72;85.66
56402;BME280;42299;35.160;26.100;2022-08-25T01:46:26;100572.06;;;21.75;85.53
56402;BME280;42299;35.160;26.100;2022-08-25T01:47:49;100576.50;;;21.76;85.43
56402;BME280;42299;35.160;26.100;2022-08-25T01:49:11;100573.91;;;21.73;85.46
56402;BME280;42299;35.160;26.100;2022-08-25T01:50:33;100581.22;;;21.69;85.64
56402;BME280;42299;35.160;26.100;2022-08-25T01:52:00;100582.25;;;21.65;85.91
56402;BME280;42299;35.160;26.100;2022-08-25T01:53:26;100578.69;;;21.65;86.11
56402;BME280;42299;35.160;26.100;2022-08-25T01:54:48;100575.06;;;21.66;85.99
56402;BME280;42299;35.160;26.100;2022-08-25T01:56:13;100575.84;;;21.69;85.85
56402;BME280;42299;35.160;26.100;2022-08-25T01:57:34;100582.94;;;21.72;85.90
56402;BME280;42299;35.160;26.100;2022-08-25T01:58:57;100580.16;;;21.73;85.85
56402;BME280;42299;35.160;26.100;2022-08-25T02:00:20;100584.63;;;21.74;85.33
56402;BME280;42299;35.160;26.100;2022-08-25T02:01:43;100588.22;;;21.73;85.40
56402;BME280;42299;35.160;26.100;2022-08-25T02:03:05;100581.00;;;21.75;85.41
56402;BME280;42299;35.160;26.100;2022-08-25T02:04:28;100586.34;;;21.77;85.34
56402;BME280;42299;35.160;26.100;2022-08-25T02:05:52;100592.69;;;21.74;85.13
56402;BME280;42299;35.160;26.100;2022-08-25T02:07:17;100584.88;;;21.67;85.15
56402;BME280;42299;35.160;26.100;2022-08-25T02:08:40;100581.66;;;21.56;85.22
56402;BME280;42299;35.160;26.100;2022-08-25T02:10:04;100576.56;;;21.46;85.42
56402;BME280;42299;35.160;26.100;2022-08-25T02:11:28;100584.75;;;21.43;85.77
56402;BME280;42299;35.160;26.100;2022-08-25T02:12:49;100577.53;;;21.45;85.88
56402;BME280;42299;35.160;26.100;2022-08-25T02:14:13;100585.41;;;21.50;85.83
56402;BME280;42299;35.160;26.100;2022-08-25T02:15:40;100577.31;;;21.52;85.56
56402;BME280;42299;35.160;26.100;2022-08-25T02:17:03;100576.56;;;21.46;85.60
56402;BME280;42299;35.160;26.100;2022-08-25T02:18:25;100578.41;;;21.46;85.54
56402;BME280;42299;35.160;26.100;2022-08-25T02:19:47;100580.09;;;21.48;85.65
56402;BME280;42299;35.160;26.100;2022-08-25T02:21:09;100579.09;;;21.53;85.46
56402;BME280;42299;35.160;26.100;2022-08-25T02:22:33;100575.41;;;21.55;85.41
56402;BME280;42299;35.160;26.100;2022-08-25T02:23:56;100582.53;;;21.56;85.31
56402;BME280;42299;35.160;26.100;2022-08-25T02:25:18;100578.00;;;21.58;85.04
56402;BME280;42299;35.160;26.100;2022-08-25T02:26:41;100577.13;;;21.58;84.94
56402;BME280;42299;35.160;26.100;2022-08-25T02:28:04;100581.66;;;21.56;84.76
56402;BME280;42299;35.160;26.100;2022-08-25T02:29:26;100578.97;;;21.56;84.45
56402;BME280;42299;35.160;26.100;2022-08-25T02:30:49;100569.31;;;21.50;84.29
56402;BME280;42299;35.160;26.100;2022-08-25T02:32:12;100574.91;;;21.42;84.50
56402;BME280;42299;35.160;26.100;2022-08-25T02:33:34;100568.72;;;21.40;84.80
56402;BME280;42299;35.160;26.100;2022-08-25T02:34:57;100569.59;;;21.41;84.94
56402;BME280;42299;35.160;26.100;2022-08-25T02:36:20;100571.47;;;21.39;84.98
56402;BME280;42299;35.160;26.100;2022-08-25T02:37:44;100563.41;;;21.39;85.04
56402;BME280;42299;35.160;26.100;2022-08-25T02:39:07;100567.06;;;21.36;85.03
56402;BME280;42299;35.160;26.100;2022-08-25T02:40:29;100563.44;;;21.37;85.03
56402;BME280;42299;35.160;26.100;2022-08-25T02:41:51;100562.44;;;21.40;84.86
56402;BME280;42299;35.160;26.100;2022-08-25T02:43:13;100563.28;;;21.42;84.58
56402;BME280;42299;35.160;26.100;2022-08-25T02:44:35;100560.59;;;21.42;84.48
56402;BME280;42299;35.160;26.100;2022-08-25T02:45:58;100560.56;;;21.43;84.57
56402;BME280;42299;35.160;26.100;2022-08-25T02:47:19;100561.50;;;21.42;84.47
56402;BME280;42299;35.160;26.100;2022-08-25T02:48:43;100570.47;;;21.41;84.19
56402;BME280;42299;35.160;26.100;2022-08-25T02:50:07;100564.22;;;21.41;84.29
56402;BME280;42299;35.160;26.100;2022-08-25T02:51:29;100561.69;;;21.36;84.44
56402;BME280;42299;35.160;26.100;2022-08-25T02:52:53;100574.28;;;21.34;84.64
56402;BME280;42299;35.160;26.100;2022-08-25T02:54:15;100574.38;;;21.31;84.86
56402;BME280;42299;35.160;26.100;2022-08-25T02:55:38;100569.94;;;21.30;85.33
56402;BME280;42299;35.160;26.100;2022-08-25T02:57:00;100567.25;;;21.30;85.35
56402;BME280;42299;35.160;26.100;2022-08-25T02:58:23;100561.94;;;21.29;85.49
56402;BME280;42299;35.160;26.100;2022-08-25T02:59:44;100569.22;;;21.25;85.59
56402;BME280;42299;35.160;26.100;2022-08-25T03:01:08;100578.22;;;21.23;85.89
56402;BME280;42299;35.160;26.100;2022-08-25T03:02:31;100569.34;;;21.21;86.10
56402;BME280;42299;35.160;26.100;2022-08-25T03:03:55;100568.44;;;21.20;86.21
56402;BME280;42299;35.160;26.100;2022-08-25T03:05:18;100578.22;;;21.23;86.12
56402;BME280;42299;35.160;26.100;2022-08-25T03:06:39;100572.88;;;21.23;86.15
56402;BME280;42299;35.160;26.100;2022-08-25T03:08:05;100572.88;;;21.23;86.05
56402;BME280;42299;35.160;26.100;2022-08-25T03:09:26;100578.19;;;21.24;86.08
56402;BME280;42299;35.160;26.100;2022-08-25T03:10:49;100573.66;;;21.26;85.92
56402;BME280;42299;35.160;26.100;2022-08-25T03:12:10;100577.16;;;21.28;85.60
56402;BME280;42299;35.160;26.100;2022-08-25T03:13:34;100574.50;;;21.27;85.46
56402;BME280;42299;35.160;26.100;2022-08-25T03:14:57;100572.81;;;21.24;85.38
56402;BME280;42299;35.160;26.100;2022-08-25T03:16:19;100576.38;;;21.25;85.50
56402;BME280;42299;35.160;26.100;2022-08-25T03:17:42;100580.75;;;21.27;85.70
56402;BME280;42299;35.160;26.100;2022-08-25T03:19:03;100576.19;;;21.31;85.58
56402;BME280;42299;35.160;26.100;2022-08-25T03:20:26;100577.84;;;21.35;85.60
56402;BME280;42299;35.160;26.100;2022-08-25T03:21:49;100575.84;;;21.41;85.49
56402;BME280;42299;35.160;26.100;2022-08-25T03:23:13;100568.41;;;21.50;85.47
56402;BME280;42299;35.160;26.100;2022-08-25T03:24:37;100571.84;;;21.55;85.20
56402;BME280;42299;35.160;26.100;2022-08-25T03:25:58;100573.50;;;21.59;85.01
56402;BME280;42299;35.160;26.100;2022-08-25T03:27:38;100569.81;;;21.61;84.71
56402;BME280;42299;35.160;26.100;2022-08-25T03:29:00;100575.25;;;21.60;84.40
56402;BME280;42299;35.160;26.100;2022-08-25T03:30:25;100573.56;;;21.57;84.30
56402;BME280;42299;35.160;26.100;2022-08-25T03:31:47;100569.19;;;21.53;84.20
56402;BME280;42299;35.160;26.100;2022-08-25T03:33:10;100572.84;;;21.52;84.21
56402;BME280;42299;35.160;26.100;2022-08-25T03:34:31;100579.31;;;21.45;84.17
56402;BME280;42299;35.160;26.100;2022-08-25T03:35:53;100573.19;;;21.40;84.41
56402;BME280;42299;35.160;26.100;2022-08-25T03:37:15;100576.91;;;21.36;84.69
56402;BME280;42299;35.160;26.100;2022-08-25T03:38:39;100577.03;;;21.33;84.67
56402;BME280;42299;35.160;26.100;2022-08-25T03:40:03;100581.59;;;21.29;84.93
56402;BME280;42299;35.160;26.100;2022-08-25T03:41:29;100579.84;;;21.28;84.85
56402;BME280;42299;35.160;26.100;2022-08-25T03:42:52;100580.75;;;21.27;85.03
56402;BME280;42299;35.160;26.100;2022-08-25T03:44:15;100590.69;;;21.25;84.90
56402;BME280;42299;35.160;26.100;2022-08-25T03:45:39;100582.84;;;21.19;85.04
56402;BME280;42299;35.160;26.100;2022-08-25T03:47:01;100589.28;;;21.12;85.24
56402;BME280;42299;35.160;26.100;2022-08-25T03:48:23;100583.91;;;21.12;85.53
56402;BME280;42299;35.160;26.100;2022-08-25T03:49:45;100579.34;;;21.16;85.59
56402;BME280;42299;35.160;26.100;2022-08-25T03:51:07;100589.09;;;21.20;85.48
56402;BME280;42299;35.160;26.100;2022-08-25T03:52:30;100580.00;;;21.24;85.39
56402;BME280;42299;35.160;26.100;2022-08-25T03:53:54;100585.22;;;21.28;85.48
56402;BME280;42299;35.160;26.100;2022-08-25T03:55:16;100581.56;;;21.31;85.23
56402;BME280;42299;35.160;26.100;2022-08-25T03:56:39;100575.19;;;21.33;85.23
56402;BME280;42299;35.160;26.100;2022-08-25T03:58:00;100582.28;;;21.36;85.25
56402;BME280;42299;35.160;26.100;2022-08-25T03:59:22;100586.63;;;21.40;85.21
56402;BME280;42299;35.160;26.100;2022-08-25T04:00:46;100592.75;;;21.45;85.33
56402;BME280;42299;35.160;26.100;2022-08-25T04:02:08;100595.28;;;21.50;85.38
56402;BME280;42299;35.160;26.100;2022-08-25T04:03:30;100593.28;;;21.56;85.82
56402;BME280;42299;35.160;26.100;2022-08-25T04:04:52;100592.25;;;21.60;85.78
56402;BME280;42299;35.160;26.100;2022-08-25T04:06:16;100593.03;;;21.64;85.83
56402;BME280;42299;35.160;26.100;2022-08-25T04:07:39;100593.03;;;21.64;85.59
56402;BME280;42299;35.160;26.100;2022-08-25T04:09:03;100595.69;;;21.65;85.41
56402;BME280;42299;35.160;26.100;2022-08-25T04:10:26;100592.13;;;21.65;85.17
56402;BME280;42299;35.160;26.100;2022-08-25T04:11:48;100591.25;;;21.64;85.00
56402;BME280;42299;35.160;26.100;2022-08-25T04:13:10;100598.38;;;21.65;84.90
56402;BME280;42299;35.160;26.100;2022-08-25T04:14:32;100601.06;;;21.65;84.80
56402;BME280;42299;35.160;26.100;2022-08-25T04:15:54;100598.25;;;21.68;84.58
56402;BME280;42299;35.160;26.100;2022-08-25T04:17:16;100596.38;;;21.72;84.58
56402;BME280;42299;35.160;26.100;2022-08-25T04:18:39;100598.09;;;21.73;84.43
56402;BME280;42299;35.160;26.100;2022-08-25T04:20:02;100593.59;;;21.73;84.36
56402;BME280;42299;35.160;26.100;2022-08-25T04:21:25;100598.97;;;21.73;84.47
56402;BME280;42299;35.160;26.100;2022-08-25T04:22:47;100595.41;;;21.73;84.57
56402;BME280;42299;35.160;26.100;2022-08-25T04:24:11;100603.38;;;21.76;84.55
56402;BME280;42299;35.160;26.100;2022-08-25T04:25:34;100600.53;;;21.80;84.54
56402;BME280;42299;35.160;26.100;2022-08-25T04:27:02;100604.81;;;21.86;84.39
56402;BME280;42299;35.160;26.100;2022-08-25T04:28:24;100599.31;;;21.91;84.23
56402;BME280;42299;35.160;26.100;2022-08-25T04:29:47;100600.06;;;21.94;84.07
56402;BME280;42299;35.160;26.100;2022-08-25T04:31:10;100598.22;;;21.98;83.90
56402;BME280;42299;35.160;26.100;2022-08-25T04:32:34;100596.28;;;22.01;83.88
56402;BME280;42299;35.160;26.100;2022-08-25T04:33:57;100598.88;;;22.04;84.06
56402;BME280;42299;35.160;26.100;2022-08-25T04:35:19;100597.00;;;22.06;83.97
56402;BME280;42299;35.160;26.100;2022-08-25T04:36:42;100605.69;;;22.14;84.23
56402;BME280;42299;35.160;26.100;2022-08-25T04:38:04;100606.13;;;22.27;84.68
56402;BME280;42299;35.160;26.100;2022-08-25T04:39:29;100601.09;;;22.43;85.33
56402;BME280;42299;35.160;26.100;2022-08-25T04:40:55;100607.69;;;22.59;85.77
56402;BME280;42299;35.160;26.100;2022-08-25T04:42:18;100604.53;;;22.73;85.98
56402;BME280;42299;35.160;26.100;2022-08-25T04:43:41;100603.03;;;22.89;86.09
56402;BME280;42299;35.160;26.100;2022-08-25T04:45:05;100610.59;;;23.02;86.16
56402;BME280;42299;35.160;26.100;2022-08-25T04:46:30;100619.88;;;23.17;86.24
56402;BME280;42299;35.160;26.100;2022-08-25T04:47:52;100611.34;;;23.29;86.28
56402;BME280;42299;35.160;26.100;2022-08-25T04:49:17;100606.34;;;23.42;85.96
56402;BME280;42299;35.160;26.100;2022-08-25T04:50:40;100609.41;;;23.56;85.92
56402;BME280;42299;35.160;26.100;2022-08-25T04:52:03;100609.78;;;23.69;85.91
56402;BME280;42299;35.160;26.100;2022-08-25T04:53:26;100613.91;;;23.77;85.62
56402;BME280;42299;35.160;26.100;2022-08-25T04:54:50;100612.75;;;23.83;85.43
56402;BME280;42299;35.160;26.100;2022-08-25T04:56:14;100607.06;;;23.91;85.56
56402;BME280;42299;35.160;26.100;2022-08-25T04:57:36;100606.63;;;24.01;85.47
56402;BME280;42299;35.160;26.100;2022-08-25T04:59:02;100598.06;;;24.12;85.89
56402;BME280;42299;35.160;26.100;2022-08-25T05:00:23;100610.13;;;24.25;85.89
56402;BME280;42299;35.160;26.100;2022-08-25T05:01:46;100609.56;;;24.37;85.75
56402;BME280;42299;35.160;26.100;2022-08-25T05:03:08;100608.97;;;24.51;85.28
56402;BME280;42299;35.160;26.100;2022-08-25T05:04:32;100606.66;;;24.62;84.69
56402;BME280;42299;35.160;26.100;2022-08-25T05:05:55;100610.72;;;24.72;84.57
56402;BME280;42299;35.160;26.100;2022-08-25T05:07:18;100607.41;;;24.86;83.78
56402;BME280;42299;35.160;26.100;2022-08-25T05:08:41;100601.31;;;25.01;83.62
56402;BME280;42299;35.160;26.100;2022-08-25T05:10:04;100599.06;;;25.11;83.10
56402;BME280;42299;35.160;26.100;2022-08-25T05:11:27;100605.56;;;25.25;82.98
56402;BME280;42299;35.160;26.100;2022-08-25T05:12:48;100601.34;;;25.38;82.58
56402;BME280;42299;35.160;26.100;2022-08-25T05:14:11;100607.03;;;25.51;82.34
56402;BME280;42299;35.160;26.100;2022-08-25T05:15:35;100605.44;;;25.66;81.54
56402;BME280;42299;35.160;26.100;2022-08-25T05:17:12;100605.47;;;25.83;81.22
56402;BME280;42299;35.160;26.100;2022-08-25T05:18:35;100607.41;;;25.98;80.98
56402;BME280;42299;35.160;26.100;2022-08-25T05:19:56;100607.31;;;26.00;80.65
56402;BME280;42299;35.160;26.100;2022-08-25T05:21:21;100600.00;;;25.85;80.51
56402;BME280;42299;35.160;26.100;2022-08-25T05:22:46;100602.81;;;25.64;80.70
56402;BME280;42299;35.160;26.100;2022-08-25T05:24:09;100611.16;;;25.60;81.19
56402;BME280;42299;35.160;26.100;2022-08-25T05:25:34;100610.31;;;25.76;80.50
56402;BME280;42299;35.160;26.100;2022-08-25T05:26:55;100607.84;;;25.72;80.24
56402;BME280;42299;35.160;26.100;2022-08-25T05:28:19;100603.13;;;25.57;79.92
56402;BME280;42299;35.160;26.100;2022-08-25T05:29:42;100606.44;;;25.45;79.72
56402;BME280;42299;35.160;26.100;2022-08-25T05:31:05;100604.06;;;25.57;79.43
56402;BME280;42299;35.160;26.100;2022-08-25T05:32:28;100601.19;;;25.79;78.59
56402;BME280;42299;35.160;26.100;2022-08-25T05:33:52;100604.03;;;25.93;77.92
56402;BME280;42299;35.160;26.100;2022-08-25T05:35:15;100607.88;;;26.06;77.15
56402;BME280;42299;35.160;26.100;2022-08-25T05:36:39;100603.09;;;26.30;76.44
56402;BME280;42299;35.160;26.100;2022-08-25T05:38:03;100600.91;;;26.54;75.97
56402;BME280;42299;35.160;26.100;2022-08-25T05:39:25;100613.41;;;26.74;75.63
56402;BME280;42299;35.160;26.100;2022-08-25T05:40:51;100610.53;;;26.94;74.85
56402;BME280;42299;35.160;26.100;2022-08-25T05:42:12;100606.97;;;27.09;74.51
56402;BME280;42299;35.160;26.100;2022-08-25T05:43:36;100600.94;;;27.20;73.75
56402;BME280;42299;35.160;26.100;2022-08-25T05:44:58;100598.84;;;27.25;73.42
56402;BME280;42299;35.160;26.100;2022-08-25T05:46:21;100593.81;;;27.34;72.72
56402;BME280;42299;35.160;26.100;2022-08-25T05:47:44;100594.84;;;27.48;72.32
56402;BME280;42299;35.160;26.100;2022-08-25T05:49:05;100604.06;;;27.61;71.88
56402;BME280;42299;35.160;26.100;2022-08-25T05:50:28;100601.69;;;27.70;71.22
56402;BME280;42299;35.160;26.100;2022-08-25T05:51:49;100601.31;;;27.76;71.13
56402;BME280;42299;35.160;26.100;2022-08-25T05:53:12;100598.28;;;27.83;71.15
56402;BME280;42299;35.160;26.100;2022-08-25T05:54:34;100594.41;;;27.87;70.73
56402;BME280;42299;35.160;26.100;2022-08-25T05:55:58;100596.59;;;27.96;70.52
56402;BME280;42299;35.160;26.100;2022-08-25T05:57:20;100593.16;;;28.08;69.61
56402;BME280;42299;35.160;26.100;2022-08-25T05:58:42;100593.03;;;28.09;68.33
56402;BME280;42299;35.160;26.100;2022-08-25T06:00:08;100597.50;;;28.10;67.05
56402;BME280;42299;35.160;26.100;2022-08-25T06:01:33;100594.78;;;28.10;65.65
56402;BME280;42299;35.160;26.100;2022-08-25T06:03:13;100590.81;;;28.02;65.01
56402;BME280;42299;35.160;26.100;2022-08-25T06:04:34;100595.53;;;27.98;64.69
56402;BME280;42299;35.160;26.100;2022-08-25T06:06:04;100595.00;;;28.07;64.35
56402;BME280;42299;35.160;26.100;2022-08-25T06:07:27;100596.03;;;28.21;64.31
56402;BME280;42299;35.160;26.100;2022-08-25T06:08:50;100595.28;;;28.33;62.88
56402;BME280;42299;35.160;26.100;2022-08-25T06:10:14;100595.28;;;28.33;61.72
56402;BME280;42299;35.160;26.100;2022-08-25T06:11:39;100593.41;;;28.19;60.65
56402;BME280;42299;35.160;26.100;2022-08-25T06:13:02;100588.97;;;28.02;60.10
56402;BME280;42299;35.160;26.100;2022-08-25T06:14:25;100586.59;;;27.96;59.50
56402;BME280;42299;35.160;26.100;2022-08-25T06:15:47;100593.59;;;28.00;59.99
56402;BME280;42299;35.160;26.100;2022-08-25T06:17:09;100593.91;;;28.10;60.03
56402;BME280;42299;35.160;26.100;2022-08-25T06:18:32;100594.88;;;28.25;60.33
56402;BME280;42299;35.160;26.100;2022-08-25T06:19:54;100592.22;;;28.39;60.68
56402;BME280;42299;35.160;26.100;2022-08-25T06:21:17;100596.31;;;28.46;59.98
56402;BME280;42299;35.160;26.100;2022-08-25T06:22:39;100595.88;;;28.38;59.28
56402;BME280;42299;35.160;26.100;2022-08-25T06:24:01;100589.19;;;28.43;59.09
56402;BME280;42299;35.160;26.100;2022-08-25T06:25:25;100593.63;;;28.60;58.90
56402;BME280;42299;35.160;26.100;2022-08-25T06:26:54;100590.22;;;28.71;57.47
56402;BME280;42299;35.160;26.100;2022-08-25T06:28:17;100598.47;;;28.69;56.78
56402;BME280;42299;35.160;26.100;2022-08-25T06:29:40;100593.91;;;28.70;56.00
56402;BME280;42299;35.160;26.100;2022-08-25T06:31:02;100601.69;;;28.76;56.04
56402;BME280;42299;35.160;26.100;2022-08-25T06:32:24;100596.28;;;28.90;55.15
56402;BME280;42299;35.160;26.100;2022-08-25T06:33:47;100595.72;;;28.99;55.34
56402;BME280;42299;35.160;26.100;2022-08-25T06:35:12;100590.53;;;29.09;55.14
56402;BME280;42299;35.160;26.100;2022-08-25T06:36:36;100590.06;;;29.16;55.50
56402;BME280;42299;35.160;26.100;2022-08-25T06:37:57;100609.41;;;29.26;55.25
56402;BME280;42299;35.160;26.100;2022-08-25T06:39:21;100598.63;;;29.39;55.17
56402;BME280;42299;35.160;26.100;2022-08-25T06:40:46;100597.81;;;29.51;54.47
56402;BME280;42299;35.160;26.100;2022-08-25T06:42:10;100600.69;;;29.62;54.70
56402;BME280;42299;35.160;26.100;2022-08-25T06:43:33;100604.44;;;29.73;54.91
56402;BME280;42299;35.160;26.100;2022-08-25T06:44:56;100601.22;;;29.81;54.75
56402;BME280;42299;35.160;26.100;2022-08-25T06:46:21;100595.16;;;29.90;53.72
56402;BME280;42299;35.160;26.100;2022-08-25T06:47:44;100597.59;;;29.95;53.39
56402;BME280;42299;35.160;26.100;2022-08-25T06:49:06;100604.28;;;30.03;53.90
56402;BME280;42299;35.160;26.100;2022-08-25T06:50:29;100605.81;;;30.07;53.65
56402;BME280;42299;35.160;26.100;2022-08-25T06:51:52;100614.84;;;30.08;53.64
56402;BME280;42299;35.160;26.100;2022-08-25T06:53:15;100617.28;;;30.13;53.57
56402;BME280;42299;35.160;26.100;2022-08-25T06:54:38;100614.03;;;30.20;53.43
56402;BME280;42299;35.160;26.100;2022-08-25T06:56:01;100620.34;;;30.21;53.62
56402;BME280;42299;35.160;26.100;2022-08-25T06:57:25;100614.03;;;30.20;54.15
56402;BME280;42299;35.160;26.100;2022-08-25T06:58:48;100607.91;;;30.17;54.17
56402;BME280;42299;35.160;26.100;2022-08-25T07:00:11;100609.00;;;30.14;54.90
56402;BME280;42299;35.160;26.100;2022-08-25T07:01:34;100610.56;;;30.18;54.99
56402;BME280;42299;35.160;26.100;2022-08-25T07:02:57;100623.94;;;30.21;54.84
56402;BME280;42299;35.160;26.100;2022-08-25T07:04:20;100616.97;;;30.17;54.93
56402;BME280;42299;35.160;26.100;2022-08-25T07:05:50;100615.84;;;30.07;54.98
56402;BME280;42299;35.160;26.100;2022-08-25T07:07:12;100620.50;;;29.92;55.41
56402;BME280;42299;35.160;26.100;2022-08-25T07:08:35;100615.81;;;29.80;55.35
56402;BME280;42299;35.160;26.100;2022-08-25T07:09:58;100614.72;;;29.56;55.19
56402;BME280;42299;35.160;26.100;2022-08-25T07:11:21;100618.91;;;29.33;55.68